To NAV CANADA Home Page Login to a new session Search on AWWS site Feedback and Comments Disclaimer Vers la page française équivalente Tips FAQ What's new on the site To the Forecasts and Observations / NOTAM section To "File a Flight Plan" website Publications and other links Update of the User's profile FIC Telephone Numbers My Weather Data Folder Route Weather Data Regional Weather Data Local Weather Data To the Forecasts and Observations / NOTAM section
Request Generated 05/25/2015 at 05:01:57 UTC . Weather information available at that time is displayed.

METAR/TAF

THOMPSON/MB    

METAR CYTH 250400Z 06006KT 15SM SCT110 11/02 A2991 RMK AC3 SLP134=
METAR CYTH 250300Z 06005KT 15SM SCT110 13/02 A2991 RMK AC4 SLP135=
METAR CYTH 250200Z 06008G15KT 15SM SCT100 16/02 A2990 RMK AC3 SLP131
DENSITY ALT 900FT=

TAF CYTH 250038Z 2501/2513 04012KT P6SM FEW100 TEMPO 2501/2504 BKN080
FM250600 09008KT P6SM SKC
RMK NXT FCST BY 250700Z=
Your time UTC time
Weather data provided by Environment Canada and NAV CANADA